This is the latest recevied weather packets stored in our database for station/object K6CED. If no packets are shown the sender has not sent any weather packets the latest 1 day(s).
| Time | Temp. | Humidity | Pressure | Rain* | Wind** | Luminosity | Snow |
|---|---|---|---|---|---|---|---|
| 1778081668 | 13.89° C | 78% | 1020.7 hPa | 0 mm | - | 340 W/m² | - |
| 1778081062 | 13.89° C | 78% | 1020.7 hPa | 0 mm | - | 330 W/m² | - |
| 1778080761 | 12.78° C | 81% | 1020.9 hPa | 0 mm | - | 346 W/m² | - |
| 1778080155 | 12.22° C | 83% | 1020.8 hPa | 0 mm | - | 302 W/m² | - |
| 1778079244 | 11.67° C | 83% | 1020.9 hPa | 0 mm | - | 217 W/m² | - |
| 1778078942 | 11.11° C | 85% | 1020.7 hPa | 0 mm | - | 205 W/m² | - |
| 1778078033 | 9.44° C | 92% | 1020.7 hPa | 0 mm | - | 77 W/m² | - |
| 1778077429 | 8.89° C | 93% | 1020.9 hPa | 0 mm | - | 50 W/m² | - |
| 1778076825 | 8.33° C | 94% | 1020.7 hPa | 0 mm | - | 43 W/m² | - |
| 1778075613 | 7.78° C | 96% | 1020.5 hPa | 0 mm | - | 36 W/m² | - |
| 1778075006 | 7.78° C | 97% | 1020.3 hPa | 0 mm | - | 54 W/m² | - |
| 1778073492 | 6.11° C | 96% | 1020.2 hPa | 0 mm | - | 17 W/m² | - |
| 1778071977 | 6.11° C | 96% | 1020 hPa | 0 mm | - | 2 W/m² | - |
| 1778070162 | 6.67° C | 96% | 1020 hPa | 0 mm | - | 0 W/m² | - |
| 1778067742 | 6.67° C | 96% | 1020 hPa | 0 mm | - | 0 W/m² | - |
| 1778064110 | 7.22° C | 96% | 1019.9 hPa | 0 mm | - | 0 W/m² | - |
| 1778063807 | 7.22° C | 96% | 1019.9 hPa | 0 mm | - | 0 W/m² | - |
| 1778063202 | 7.22° C | 95% | 1019.8 hPa | 0 mm | - | 0 W/m² | - |
| 1778062899 | 7.22° C | 95% | 1019.5 hPa | 0 mm | - | 0 W/m² | - |
| 1778061387 | 7.78° C | 95% | 1019.5 hPa | 0 mm | - | 0 W/m² | - |
| 1778060781 | 7.78° C | 95% | 1019.7 hPa | 0 mm | - | 0 W/m² | - |
| 1778060177 | 7.78° C | 95% | 1019.7 hPa | 0 mm | - | 0 W/m² | - |
| 1778059874 | 7.78° C | 95% | 1019.5 hPa | 0 mm | - | 0 W/m² | - |
| 1778057148 | 8.89° C | 94% | 1019.8 hPa | 0 mm | - | 0 W/m² | - |
| 1778056844 | 8.89° C | 94% | 1020 hPa | 0 mm | - | 0 W/m² | - |
* Rain latest hour (hover to see other rain measurements)
** Current wind speed in m/s (hover to see current wind gust speed)